createdAt,value
2022-12-05T00:00:51.692Z,95.42
2022-12-05T00:03:18.994Z,94.74
2022-12-05T00:05:45.413Z,94.94
2022-12-05T00:08:12.022Z,95.48
2022-12-05T00:10:39.708Z,95.29
2022-12-05T00:13:06.377Z,95.05
2022-12-05T00:15:37.421Z,94.91
2022-12-05T00:18:04.322Z,95.11
2022-12-05T00:20:30.753Z,95.23
2022-12-05T00:22:57.281Z,94.90
2022-12-05T00:25:23.685Z,95.35
2022-12-05T00:27:50.092Z,94.77
2022-12-05T00:30:16.553Z,94.97
2022-12-05T00:32:43.025Z,94.92
2022-12-05T00:35:09.524Z,94.67
2022-12-05T00:37:36.416Z,94.34
2022-12-05T00:40:03.101Z,94.39
2022-12-05T00:42:29.509Z,94.92
2022-12-05T00:44:55.900Z,94.86
2022-12-05T00:47:22.293Z,94.69
2022-12-05T00:49:48.721Z,94.97
2022-12-05T00:52:15.091Z,94.79
2022-12-05T00:54:41.469Z,95.24
2022-12-05T00:57:07.946Z,94.69
2022-12-05T00:59:34.308Z,94.45
2022-12-05T01:02:00.702Z,94.70
2022-12-05T01:04:27.377Z,94.67
2022-12-05T01:06:55.918Z,94.46
2022-12-05T01:09:22.600Z,94.46
2022-12-05T01:11:49.782Z,94.29
2022-12-05T01:14:19.006Z,94.39
2022-12-05T01:16:48.123Z,94.10
2022-12-05T01:19:18.172Z,94.29
2022-12-05T01:21:44.790Z,94.66
2022-12-05T01:24:12.325Z,94.23
2022-12-05T01:26:40.695Z,93.96
2022-12-05T01:29:07.289Z,93.93
2022-12-05T01:31:36.208Z,93.92
2022-12-05T01:34:07.689Z,93.98
2022-12-05T01:36:34.110Z,93.23
2022-12-05T01:39:00.760Z,93.77
2022-12-05T01:41:29.500Z,93.29
2022-12-05T01:44:27.551Z,93.49
2022-12-05T01:46:55.405Z,94.16
2022-12-05T01:49:32.803Z,94.34
2022-12-05T01:52:04.304Z,94.08
2022-12-05T01:54:30.840Z,94.11
2022-12-05T01:57:01.293Z,93.91
2022-12-05T01:59:31.350Z,93.66
2022-12-05T02:01:58.286Z,93.95
2022-12-05T02:04:24.704Z,93.84
2022-12-05T02:06:51.781Z,93.54
2022-12-05T02:09:18.227Z,94.09
2022-12-05T02:11:55.668Z,94.27
2022-12-05T02:14:38.282Z,93.96
2022-12-05T02:17:23.493Z,94.07
2022-12-05T02:20:00.231Z,94.22
2022-12-05T02:23:03.869Z,94.07
2022-12-05T02:25:52.036Z,94.38
2022-12-05T02:28:36.755Z,94.54
2022-12-05T02:31:22.729Z,94.94
2022-12-05T02:33:53.280Z,94.54
2022-12-05T02:36:35.124Z,94.67
2022-12-05T02:39:20.946Z,94.68
2022-12-05T02:42:08.526Z,94.66
2022-12-05T02:44:47.837Z,94.69
2022-12-05T02:47:18.887Z,94.37
2022-12-05T02:49:45.368Z,94.78
2022-12-05T02:52:15.153Z,95.19
2022-12-05T02:54:44.319Z,94.89
2022-12-05T02:57:13.254Z,94.53
2022-12-05T02:59:39.923Z,94.88
2022-12-05T03:02:09.175Z,94.82
2022-12-05T03:04:35.792Z,94.68
2022-12-05T03:07:11.275Z,94.43
2022-12-05T03:09:43.680Z,94.42
2022-12-05T03:12:16.229Z,94.60
2022-12-05T03:14:47.165Z,94.93
2022-12-05T03:17:20.117Z,94.78
2022-12-05T03:20:03.030Z,94.03
2022-12-05T03:22:40.884Z,94.13
2022-12-05T03:25:09.302Z,94.64
2022-12-05T03:28:01.645Z,94.12
2022-12-05T03:30:29.512Z,94.16
2022-12-05T03:33:05.699Z,94.00
2022-12-05T03:35:40.964Z,93.89
2022-12-05T03:38:16.141Z,94.15
2022-12-05T03:41:01.037Z,94.04
2022-12-05T03:43:57.778Z,94.04
2022-12-05T03:46:29.872Z,93.77
2022-12-05T03:49:04.870Z,94.29
2022-12-05T03:51:36.043Z,94.34
2022-12-05T03:54:08.403Z,94.47
2022-12-05T03:56:42.523Z,94.19
2022-12-05T03:59:18.428Z,94.41
2022-12-05T04:01:48.747Z,94.44
2022-12-05T04:04:23.227Z,94.32
2022-12-05T04:06:53.613Z,93.74
2022-12-05T04:09:28.794Z,94.41
2022-12-05T04:11:59.950Z,94.60
2022-12-05T04:14:37.323Z,94.28
2022-12-05T04:17:20.124Z,94.66
2022-12-05T04:20:14.007Z,94.67
2022-12-05T04:22:41.359Z,94.33
2022-12-05T04:25:29.528Z,94.59
2022-12-05T04:28:23.992Z,94.37
2022-12-05T04:31:03.716Z,94.58
2022-12-05T04:33:44.812Z,94.44
2022-12-05T04:36:20.291Z,94.13
2022-12-05T04:38:53.639Z,93.74
2022-12-05T04:41:28.944Z,93.97
2022-12-05T04:43:59.257Z,94.00
2022-12-05T04:46:25.740Z,94.03
2022-12-05T04:49:00.736Z,93.57
2022-12-05T04:51:31.365Z,93.53
2022-12-05T04:54:04.642Z,93.34
2022-12-05T04:56:35.480Z,93.71
2022-12-05T04:59:02.206Z,93.60
2022-12-05T05:01:41.778Z,93.94
2022-12-05T05:04:27.331Z,93.92
2022-12-05T05:06:53.857Z,93.80
2022-12-05T05:09:20.220Z,94.07
2022-12-05T05:11:46.915Z,94.07
2022-12-05T05:14:13.303Z,93.96
2022-12-05T05:16:41.875Z,93.70
2022-12-05T05:19:10.528Z,93.77
2022-12-05T05:21:41.986Z,93.82
2022-12-05T05:24:10.445Z,93.78
2022-12-05T05:26:40.500Z,93.57
2022-12-05T05:29:07.352Z,93.78
2022-12-05T05:31:34.003Z,93.74
2022-12-05T05:34:04.575Z,94.10
2022-12-05T05:36:35.492Z,94.07
2022-12-05T05:39:03.709Z,94.14
2022-12-05T05:41:35.684Z,94.25
2022-12-05T05:44:03.185Z,93.39
2022-12-05T05:46:32.186Z,93.67
2022-12-05T05:48:58.897Z,93.69
2022-12-05T05:51:27.941Z,93.64
2022-12-05T05:53:54.538Z,93.49
2022-12-05T05:56:22.293Z,93.29
2022-12-05T05:58:55.105Z,93.94
2022-12-05T06:01:22.004Z,94.44
2022-12-05T06:03:50.578Z,94.20
2022-12-05T06:06:17.843Z,93.71
2022-12-05T06:08:45.454Z,93.62
2022-12-05T06:11:16.078Z,93.42
2022-12-05T06:13:44.249Z,93.62
2022-12-05T06:16:14.580Z,93.54
2022-12-05T06:18:41.738Z,93.67
2022-12-05T06:21:13.159Z,93.16
2022-12-05T06:23:42.437Z,94.19
2022-12-05T06:26:14.409Z,94.08
2022-12-05T06:28:41.311Z,93.80
2022-12-05T06:31:22.885Z,93.82
2022-12-05T06:33:49.843Z,93.79
2022-12-05T06:36:20.948Z,94.00
2022-12-05T06:38:47.663Z,94.00
2022-12-05T06:41:16.595Z,94.42
2022-12-05T06:43:43.664Z,94.83
2022-12-05T06:46:12.580Z,94.55
2022-12-05T06:48:39.545Z,94.52
2022-12-05T06:51:12.776Z,94.89
2022-12-05T06:53:39.943Z,94.63
2022-12-05T06:56:08.187Z,94.34
2022-12-05T06:58:34.565Z,94.21
2022-12-05T07:01:19.659Z,94.33
2022-12-05T07:03:48.970Z,94.29
2022-12-05T07:06:16.714Z,94.88
2022-12-05T07:08:43.712Z,94.67
2022-12-05T07:11:10.189Z,94.73
2022-12-05T07:13:36.781Z,94.58
2022-12-05T07:16:04.384Z,94.64
2022-12-05T07:18:30.905Z,94.49
2022-12-05T07:21:13.102Z,94.09
2022-12-05T07:23:41.487Z,94.29
2022-12-05T07:26:09.682Z,94.50
2022-12-05T07:28:36.461Z,94.23
2022-12-05T07:31:05.218Z,94.41
2022-12-05T07:33:34.516Z,94.33
2022-12-05T07:36:07.822Z,94.39
2022-12-05T07:38:34.206Z,94.12
2022-12-05T07:41:08.951Z,94.12
2022-12-05T07:43:38.098Z,94.32
2022-12-05T07:46:06.413Z,94.12
2022-12-05T07:48:33.722Z,94.29
2022-12-05T07:51:04.998Z,94.24
2022-12-05T07:53:32.404Z,94.54
2022-12-05T07:56:00.716Z,94.79
2022-12-05T07:58:29.344Z,94.90
2022-12-05T08:00:56.943Z,94.73
2022-12-05T08:03:23.605Z,95.05
2022-12-05T08:05:50.061Z,95.04
2022-12-05T08:08:19.003Z,94.52
2022-12-05T08:10:45.497Z,94.76
2022-12-05T08:13:14.631Z,94.92
2022-12-05T08:15:41.054Z,94.62
2022-12-05T08:18:07.463Z,94.27
2022-12-05T08:20:33.832Z,94.09
2022-12-05T08:23:03.592Z,94.56
2022-12-05T08:25:30.568Z,94.69
2022-12-05T08:28:16.174Z,94.73
2022-12-05T08:30:42.731Z,94.87
2022-12-05T08:33:09.177Z,94.64
2022-12-05T08:35:37.530Z,94.43
2022-12-05T08:38:03.961Z,94.75
2022-12-05T08:40:31.308Z,94.77
2022-12-05T08:42:58.087Z,94.60
2022-12-05T08:45:24.505Z,94.62
2022-12-05T08:47:50.873Z,94.77
2022-12-05T08:50:17.502Z,95.07
2022-12-05T08:52:43.929Z,94.69
2022-12-05T08:55:10.331Z,94.82
2022-12-05T08:57:36.721Z,94.79
2022-12-05T09:00:05.931Z,94.94
2022-12-05T09:02:32.556Z,95.25
2022-12-05T09:05:09.065Z,94.99
2022-12-05T09:07:45.594Z,95.14
2022-12-05T09:10:12.017Z,95.29
2022-12-05T09:12:41.574Z,95.14
2022-12-05T09:15:09.686Z,94.83
2022-12-05T09:17:36.532Z,95.80
2022-12-05T09:20:04.104Z,95.33
2022-12-05T09:22:30.566Z,95.32
2022-12-05T09:24:57.181Z,95.06
2022-12-05T09:27:23.749Z,94.98
2022-12-05T09:29:50.109Z,95.07
2022-12-05T09:32:16.574Z,94.98
2022-12-05T09:34:43.103Z,94.98
2022-12-05T09:37:30.937Z,94.92
2022-12-05T09:39:55.843Z,95.09
2022-12-05T09:42:46.822Z,94.75
2022-12-05T09:45:34.466Z,94.96
2022-12-05T09:48:11.483Z,94.99
2022-12-05T09:50:52.614Z,95.23
2022-12-05T09:53:35.683Z,94.87
2022-12-05T09:56:12.396Z,94.91
2022-12-05T09:58:50.216Z,94.89
2022-12-05T10:01:39.086Z,95.52
2022-12-05T10:04:18.762Z,95.59
2022-12-05T10:07:10.258Z,95.55
2022-12-05T10:09:51.812Z,95.44
2022-12-05T10:12:33.369Z,95.92
2022-12-05T10:15:03.525Z,96.12
2022-12-05T10:17:35.906Z,95.86
2022-12-05T10:20:17.092Z,95.38
2022-12-05T10:22:47.843Z,95.45
2022-12-05T10:25:19.415Z,95.37
2022-12-05T13:33:57.317Z,95.34
2022-12-05T13:36:42.860Z,95.49
2022-12-05T13:39:33.837Z,95.57
2022-12-05T13:42:13.006Z,95.49
2022-12-05T13:44:54.573Z,95.22
2022-12-05T13:47:26.640Z,95.39
2022-12-05T13:49:58.914Z,94.67
2022-12-05T13:52:30.625Z,94.94
2022-12-05T13:55:02.274Z,94.78
2022-12-05T13:57:37.796Z,94.78
2022-12-05T14:00:19.852Z,94.76
2022-12-05T14:02:48.721Z,94.66
2022-12-05T14:05:15.117Z,94.67
2022-12-05T14:07:46.007Z,94.46
2022-12-05T14:10:18.301Z,94.14
2022-12-05T14:12:47.731Z,94.26
2022-12-05T14:15:42.672Z,94.27
2022-12-05T14:18:34.001Z,94.44
2022-12-05T14:21:05.306Z,94.44
2022-12-05T14:23:44.364Z,94.14
2022-12-05T14:26:35.118Z,94.27
2022-12-05T14:29:35.402Z,94.04
2022-12-05T14:32:17.426Z,93.59
2022-12-05T14:35:11.974Z,93.45
2022-12-05T14:37:49.732Z,93.92
2022-12-05T14:40:47.248Z,93.99
2022-12-05T14:43:32.756Z,94.14
2022-12-05T14:46:06.324Z,94.14
2022-12-05T14:48:47.342Z,94.43
2022-12-05T14:51:44.587Z,94.76
2022-12-05T14:54:17.732Z,94.58
2022-12-05T14:56:47.873Z,94.69
2022-12-05T14:59:32.861Z,94.80
2022-12-05T15:02:02.468Z,95.11
2022-12-05T15:04:50.210Z,94.97
2022-12-05T15:07:26.024Z,94.82
2022-12-05T15:09:59.907Z,94.43
2022-12-05T15:12:43.670Z,94.06
2022-12-05T15:15:44.745Z,94.21
2022-12-05T15:18:42.708Z,94.11
2022-12-05T15:21:19.069Z,94.27
2022-12-05T15:23:55.690Z,94.23
2022-12-05T15:26:48.101Z,94.43
2022-12-05T15:29:23.025Z,94.32
2022-12-05T15:31:53.578Z,93.94
2022-12-05T15:34:33.794Z,94.27
2022-12-05T15:37:17.761Z,94.52
2022-12-05T15:39:54.774Z,94.35
2022-12-05T15:42:27.682Z,94.43
2022-12-05T15:45:14.714Z,94.74
2022-12-05T15:47:42.952Z,94.74
2022-12-05T15:50:14.223Z,94.14
2022-12-05T15:52:46.976Z,94.12
2022-12-05T15:55:38.736Z,93.59
2022-12-05T15:58:19.510Z,93.10
2022-12-05T16:00:50.659Z,92.81
2022-12-05T16:03:38.945Z,93.29
2022-12-05T16:06:14.545Z,93.54
2022-12-05T16:08:46.333Z,93.22
2022-12-05T16:11:14.754Z,93.62
2022-12-05T16:13:47.978Z,93.77
2022-12-05T16:16:24.336Z,93.65
2022-12-05T16:19:13.913Z,93.42
2022-12-05T16:22:06.244Z,93.87
2022-12-05T16:24:39.879Z,93.47
2022-12-05T16:27:24.966Z,93.53
2022-12-05T16:30:31.534Z,93.04
2022-12-05T16:33:19.664Z,93.06
2022-12-05T16:35:47.256Z,92.90
2022-12-05T16:38:16.778Z,93.13
2022-12-05T16:40:46.197Z,92.95
2022-12-05T16:43:24.301Z,92.61
2022-12-05T16:45:52.900Z,91.96
2022-12-05T16:48:30.207Z,92.27
2022-12-05T16:51:25.780Z,92.84
2022-12-05T16:53:55.961Z,93.12
2022-12-05T16:56:32.399Z,92.59
2022-12-05T16:59:03.017Z,92.57
2022-12-05T17:01:33.178Z,92.74
2022-12-05T17:04:02.164Z,93.09
2022-12-05T17:06:28.598Z,93.54
2022-12-05T17:08:55.235Z,93.93
2022-12-05T17:11:41.532Z,94.38
2022-12-05T17:14:13.803Z,94.21
2022-12-05T17:16:58.142Z,94.22
2022-12-05T17:26:52.293Z,93.76
2022-12-05T17:29:18.732Z,93.06
2022-12-05T17:31:45.190Z,93.32
2022-12-05T17:34:17.153Z,93.09
2022-12-05T17:36:44.601Z,92.89
2022-12-05T17:39:11.022Z,93.17
2022-12-05T17:41:37.896Z,93.39
2022-12-05T17:44:05.142Z,93.59
2022-12-05T17:46:32.131Z,93.81
2022-12-05T17:48:58.621Z,93.35
2022-12-05T17:51:25.543Z,93.59
2022-12-05T17:53:53.004Z,93.43
2022-12-05T17:56:19.505Z,93.02
2022-12-05T17:58:46.736Z,93.59
2022-12-05T18:01:15.513Z,94.04
2022-12-05T18:03:42.435Z,93.87
2022-12-05T18:06:08.949Z,94.02
2022-12-05T18:08:39.517Z,93.63
2022-12-05T18:11:06.251Z,93.96
2022-12-05T18:13:33.029Z,93.96
2022-12-05T18:15:59.732Z,93.77
2022-12-05T18:18:28.555Z,93.29
2022-12-05T18:21:10.220Z,93.21
2022-12-05T18:23:37.811Z,93.23
2022-12-05T18:26:05.953Z,93.12
2022-12-05T18:28:36.235Z,92.71
2022-12-05T18:31:12.127Z,92.54
2022-12-05T18:33:39.441Z,92.56
2022-12-05T18:36:08.240Z,93.05
2022-12-05T18:38:35.830Z,93.15
2022-12-05T18:41:03.962Z,93.04
2022-12-05T18:43:30.752Z,92.94
2022-12-05T18:45:58.652Z,92.77
2022-12-05T18:48:38.746Z,93.05
2022-12-05T18:51:18.056Z,93.24
2022-12-05T18:53:51.886Z,93.28
2022-12-05T18:56:23.748Z,93.96
2022-12-05T18:58:59.574Z,94.15
2022-12-05T19:01:27.422Z,93.89
2022-12-05T19:03:54.420Z,93.66
2022-12-05T19:06:24.139Z,93.46
2022-12-05T19:08:54.089Z,93.35
2022-12-05T19:11:20.856Z,93.62
2022-12-05T19:13:47.556Z,92.92
2022-12-05T19:16:16.775Z,92.97
2022-12-05T19:18:43.544Z,92.95
2022-12-05T19:21:10.289Z,93.07
2022-12-05T19:23:36.749Z,92.84
2022-12-05T19:26:05.848Z,92.94
2022-12-05T19:28:34.077Z,92.74
2022-12-05T19:31:03.469Z,92.37
2022-12-05T19:33:31.697Z,92.28
2022-12-05T19:36:03.117Z,91.77
2022-12-05T19:38:34.905Z,91.97
2022-12-05T19:41:03.144Z,91.67
2022-12-05T19:43:30.820Z,91.80
2022-12-05T19:45:58.018Z,92.08
2022-12-05T19:48:25.105Z,92.32
2022-12-05T19:50:59.752Z,92.60
2022-12-05T19:53:29.488Z,92.74
2022-12-05T19:56:08.709Z,92.82
2022-12-05T19:58:36.555Z,93.28
2022-12-05T20:01:21.426Z,93.33
2022-12-05T20:03:55.993Z,93.16
2022-12-05T20:06:23.206Z,92.77
2022-12-05T20:08:52.388Z,92.66
2022-12-05T20:11:21.315Z,92.62
2022-12-05T20:13:48.518Z,92.66
2022-12-05T20:16:18.319Z,92.20
2022-12-05T20:18:45.652Z,92.22
2022-12-05T20:21:13.676Z,92.32
2022-12-05T20:23:40.131Z,93.12
2022-12-05T20:26:07.867Z,93.09
2022-12-05T20:28:34.838Z,93.17
2022-12-05T20:31:08.220Z,93.02
2022-12-05T20:33:35.303Z,93.20
2022-12-05T20:36:07.550Z,93.04
2022-12-05T20:38:34.229Z,93.26
2022-12-05T20:41:04.117Z,92.97
2022-12-05T20:43:30.712Z,92.88
2022-12-05T20:46:15.921Z,92.95
2022-12-05T20:48:43.110Z,92.67
2022-12-05T20:51:15.543Z,92.93
2022-12-05T20:53:43.561Z,92.73
2022-12-05T20:56:18.950Z,93.02
2022-12-05T20:58:47.858Z,92.55
2022-12-05T21:01:15.508Z,92.93
2022-12-05T21:03:47.277Z,92.45
2022-12-05T21:06:16.537Z,92.26
2022-12-05T21:08:43.583Z,92.81
2022-12-05T21:11:10.839Z,92.49
2022-12-05T21:13:37.828Z,92.69
2022-12-05T21:16:10.696Z,92.62
2022-12-05T21:18:37.938Z,92.31
2022-12-05T21:21:07.236Z,92.53
2022-12-05T21:23:34.270Z,92.39
2022-12-05T21:26:03.811Z,92.12
2022-12-05T21:28:31.602Z,91.56
2022-12-05T21:31:18.771Z,91.52
2022-12-05T21:33:54.080Z,91.53
2022-12-05T21:36:20.861Z,91.52
2022-12-05T21:38:50.917Z,92.28
2022-12-05T21:41:20.601Z,92.46
2022-12-05T21:43:52.457Z,92.01
2022-12-05T21:46:20.807Z,92.27
2022-12-05T21:48:47.241Z,91.91
2022-12-05T21:51:13.679Z,92.07
2022-12-05T21:53:40.081Z,91.94
2022-12-05T21:56:10.770Z,92.44
2022-12-05T21:58:42.089Z,92.00
2022-12-05T22:01:10.672Z,92.60
2022-12-05T22:03:37.149Z,91.64
2022-12-05T22:06:09.230Z,91.93
2022-12-05T22:08:35.638Z,91.99
2022-12-05T22:11:10.440Z,92.39
2022-12-05T22:13:37.285Z,92.27
2022-12-05T22:16:04.907Z,92.22
2022-12-05T22:18:31.700Z,92.44
2022-12-05T22:21:04.264Z,91.89
2022-12-05T22:23:32.937Z,91.81
2022-12-05T22:26:08.200Z,92.44
2022-12-05T22:28:35.897Z,92.09
2022-12-05T22:31:05.217Z,91.94
2022-12-05T22:33:31.977Z,92.41
2022-12-05T22:36:00.502Z,91.92
2022-12-05T22:38:35.211Z,92.26
2022-12-05T22:41:04.371Z,92.29
2022-12-05T22:43:32.198Z,92.52
2022-12-05T22:46:05.332Z,92.34
2022-12-05T22:48:31.736Z,92.30
2022-12-05T22:50:58.624Z,92.59
2022-12-05T22:53:25.060Z,92.58
2022-12-05T22:55:51.578Z,92.77
2022-12-05T22:58:18.528Z,92.49
2022-12-05T23:00:46.229Z,92.19
2022-12-05T23:03:12.944Z,92.19
2022-12-05T23:05:41.349Z,92.07
2022-12-05T23:08:08.338Z,91.70
2022-12-05T23:10:34.811Z,91.81
2022-12-05T23:13:01.224Z,91.77
2022-12-05T23:15:27.667Z,91.38
2022-12-05T23:17:54.315Z,91.61
2022-12-05T23:20:20.750Z,91.90
2022-12-05T23:22:47.144Z,91.33
2022-12-05T23:25:13.535Z,91.49
2022-12-05T23:27:39.969Z,91.55
2022-12-05T23:30:07.105Z,91.49
2022-12-05T23:32:33.505Z,91.64
2022-12-05T23:34:59.932Z,91.66
2022-12-05T23:37:26.361Z,91.62
2022-12-05T23:39:52.783Z,91.82
2022-12-05T23:42:19.163Z,92.23
2022-12-05T23:44:46.062Z,91.89
2022-12-05T23:47:12.904Z,91.70
2022-12-05T23:49:39.434Z,91.22
2022-12-05T23:52:05.830Z,90.75
2022-12-05T23:54:32.305Z,91.06
2022-12-05T23:56:58.737Z,91.31
2022-12-05T23:59:25.161Z,91.64
